sensor_id;sensor_type;location;lat;lon;timestamp;P1;durP1;ratioP1;P2;durP2;ratioP2
56637;SDS011;42507;51.982;20.140;2023-12-28T00:01:26;53.60;;;25.80;;
56637;SDS011;42507;51.982;20.140;2023-12-28T00:03:52;54.00;;;24.90;;
56637;SDS011;42507;51.982;20.140;2023-12-28T00:06:18;64.60;;;28.20;;
56637;SDS011;42507;51.982;20.140;2023-12-28T00:08:44;63.30;;;29.20;;
56637;SDS011;42507;51.982;20.140;2023-12-28T00:11:10;58.90;;;26.60;;
56637;SDS011;42507;51.982;20.140;2023-12-28T00:13:36;56.80;;;26.20;;
56637;SDS011;42507;51.982;20.140;2023-12-28T00:16:02;59.70;;;28.60;;
56637;SDS011;42507;51.982;20.140;2023-12-28T00:18:28;57.50;;;27.00;;
56637;SDS011;42507;51.982;20.140;2023-12-28T00:20:54;60.50;;;27.60;;
56637;SDS011;42507;51.982;20.140;2023-12-28T00:23:20;57.70;;;26.10;;
56637;SDS011;42507;51.982;20.140;2023-12-28T00:25:46;60.20;;;28.10;;
56637;SDS011;42507;51.982;20.140;2023-12-28T00:28:12;65.60;;;27.80;;
56637;SDS011;42507;51.982;20.140;2023-12-28T00:30:38;55.40;;;27.10;;
56637;SDS011;42507;51.982;20.140;2023-12-28T00:33:04;55.90;;;25.90;;
56637;SDS011;42507;51.982;20.140;2023-12-28T00:35:32;51.70;;;23.20;;
56637;SDS011;42507;51.982;20.140;2023-12-28T00:37:58;49.70;;;22.80;;
56637;SDS011;42507;51.982;20.140;2023-12-28T00:40:24;45.70;;;21.00;;
56637;SDS011;42507;51.982;20.140;2023-12-28T00:42:50;45.00;;;19.40;;
56637;SDS011;42507;51.982;20.140;2023-12-28T00:45:16;39.50;;;19.50;;
56637;SDS011;42507;51.982;20.140;2023-12-28T00:47:42;46.80;;;18.90;;
56637;SDS011;42507;51.982;20.140;2023-12-28T00:50:09;41.50;;;18.00;;
56637;SDS011;42507;51.982;20.140;2023-12-28T00:52:37;36.20;;;15.50;;
56637;SDS011;42507;51.982;20.140;2023-12-28T00:55:04;43.60;;;18.10;;
56637;SDS011;42507;51.982;20.140;2023-12-28T00:57:30;38.20;;;16.80;;
56637;SDS011;42507;51.982;20.140;2023-12-28T00:59:56;31.20;;;15.20;;
56637;SDS011;42507;51.982;20.140;2023-12-28T01:02:22;38.30;;;16.20;;
56637;SDS011;42507;51.982;20.140;2023-12-28T01:04:48;41.10;;;17.00;;
56637;SDS011;42507;51.982;20.140;2023-12-28T01:07:14;35.80;;;16.40;;
56637;SDS011;42507;51.982;20.140;2023-12-28T01:09:40;38.50;;;16.10;;
56637;SDS011;42507;51.982;20.140;2023-12-28T01:12:06;40.50;;;16.90;;
56637;SDS011;42507;51.982;20.140;2023-12-28T01:14:32;38.60;;;16.20;;
56637;SDS011;42507;51.982;20.140;2023-12-28T01:16:58;37.40;;;16.40;;
56637;SDS011;42507;51.982;20.140;2023-12-28T01:19:24;32.50;;;14.50;;
56637;SDS011;42507;51.982;20.140;2023-12-28T01:21:50;37.00;;;15.20;;
56637;SDS011;42507;51.982;20.140;2023-12-28T01:24:16;35.40;;;14.90;;
56637;SDS011;42507;51.982;20.140;2023-12-28T01:26:43;31.80;;;15.00;;
56637;SDS011;42507;51.982;20.140;2023-12-28T01:29:09;29.90;;;14.50;;
56637;SDS011;42507;51.982;20.140;2023-12-28T01:31:36;30.40;;;13.80;;
56637;SDS011;42507;51.982;20.140;2023-12-28T01:34:03;30.30;;;14.90;;
56637;SDS011;42507;51.982;20.140;2023-12-28T01:36:29;32.80;;;14.50;;
56637;SDS011;42507;51.982;20.140;2023-12-28T01:38:55;37.90;;;15.80;;
56637;SDS011;42507;51.982;20.140;2023-12-28T01:41:21;36.80;;;15.40;;
56637;SDS011;42507;51.982;20.140;2023-12-28T01:43:47;28.70;;;14.80;;
56637;SDS011;42507;51.982;20.140;2023-12-28T01:46:15;38.30;;;15.90;;
56637;SDS011;42507;51.982;20.140;2023-12-28T01:48:44;36.10;;;15.00;;
56637;SDS011;42507;51.982;20.140;2023-12-28T01:51:11;35.00;;;14.90;;
56637;SDS011;42507;51.982;20.140;2023-12-28T01:53:38;29.80;;;14.00;;
56637;SDS011;42507;51.982;20.140;2023-12-28T01:56:04;34.60;;;13.90;;
56637;SDS011;42507;51.982;20.140;2023-12-28T01:58:31;26.50;;;11.50;;
56637;SDS011;42507;51.982;20.140;2023-12-28T02:00:58;24.80;;;11.40;;
56637;SDS011;42507;51.982;20.140;2023-12-28T02:03:24;28.80;;;12.70;;
56637;SDS011;42507;51.982;20.140;2023-12-28T02:05:51;27.10;;;12.10;;
56637;SDS011;42507;51.982;20.140;2023-12-28T02:08:17;27.90;;;13.00;;
56637;SDS011;42507;51.982;20.140;2023-12-28T02:10:43;25.20;;;11.40;;
56637;SDS011;42507;51.982;20.140;2023-12-28T02:13:09;28.20;;;12.10;;
56637;SDS011;42507;51.982;20.140;2023-12-28T02:15:35;26.00;;;11.70;;
56637;SDS011;42507;51.982;20.140;2023-12-28T02:18:02;27.20;;;12.10;;
56637;SDS011;42507;51.982;20.140;2023-12-28T02:20:32;30.70;;;11.90;;
56637;SDS011;42507;51.982;20.140;2023-12-28T02:22:59;27.50;;;12.20;;
56637;SDS011;42507;51.982;20.140;2023-12-28T02:25:25;22.30;;;10.90;;
56637;SDS011;42507;51.982;20.140;2023-12-28T02:27:51;23.30;;;10.70;;
56637;SDS011;42507;51.982;20.140;2023-12-28T02:30:18;26.10;;;10.80;;
56637;SDS011;42507;51.982;20.140;2023-12-28T02:35:32;20.70;;;10.50;;
56637;SDS011;42507;51.982;20.140;2023-12-28T02:38:05;23.80;;;10.70;;
56637;SDS011;42507;51.982;20.140;2023-12-28T02:44:33;24.60;;;10.60;;
56637;SDS011;42507;51.982;20.140;2023-12-28T02:46:59;23.80;;;10.20;;
56637;SDS011;42507;51.982;20.140;2023-12-28T02:49:25;20.20;;;9.30;;
56637;SDS011;42507;51.982;20.140;2023-12-28T02:51:51;22.70;;;9.10;;
56637;SDS011;42507;51.982;20.140;2023-12-28T02:54:17;20.70;;;9.60;;
56637;SDS011;42507;51.982;20.140;2023-12-28T02:56:43;22.60;;;9.90;;
56637;SDS011;42507;51.982;20.140;2023-12-28T02:59:10;23.80;;;9.80;;
56637;SDS011;42507;51.982;20.140;2023-12-28T03:01:36;23.20;;;9.80;;
56637;SDS011;42507;51.982;20.140;2023-12-28T03:04:02;23.30;;;9.90;;
56637;SDS011;42507;51.982;20.140;2023-12-28T03:06:28;24.70;;;10.10;;
56637;SDS011;42507;51.982;20.140;2023-12-28T03:08:54;20.80;;;9.80;;
56637;SDS011;42507;51.982;20.140;2023-12-28T03:11:20;20.20;;;8.90;;
56637;SDS011;42507;51.982;20.140;2023-12-28T03:13:46;21.20;;;9.20;;
56637;SDS011;42507;51.982;20.140;2023-12-28T03:16:15;21.00;;;9.70;;
56637;SDS011;42507;51.982;20.140;2023-12-28T03:18:41;21.80;;;10.00;;
56637;SDS011;42507;51.982;20.140;2023-12-28T03:21:08;22.30;;;10.20;;
56637;SDS011;42507;51.982;20.140;2023-12-28T03:23:34;25.30;;;11.60;;
56637;SDS011;42507;51.982;20.140;2023-12-28T03:26:00;24.80;;;11.90;;
56637;SDS011;42507;51.982;20.140;2023-12-28T03:28:27;30.30;;;12.30;;
56637;SDS011;42507;51.982;20.140;2023-12-28T03:30:53;22.60;;;10.70;;
56637;SDS011;42507;51.982;20.140;2023-12-28T03:33:19;26.70;;;11.80;;
56637;SDS011;42507;51.982;20.140;2023-12-28T03:35:45;25.80;;;11.00;;
56637;SDS011;42507;51.982;20.140;2023-12-28T03:38:13;23.20;;;9.60;;
56637;SDS011;42507;51.982;20.140;2023-12-28T03:40:39;27.20;;;11.20;;
56637;SDS011;42507;51.982;20.140;2023-12-28T03:43:05;27.20;;;11.80;;
56637;SDS011;42507;51.982;20.140;2023-12-28T03:45:31;25.10;;;10.80;;
56637;SDS011;42507;51.982;20.140;2023-12-28T03:47:57;22.40;;;10.40;;
56637;SDS011;42507;51.982;20.140;2023-12-28T03:50:23;22.30;;;10.10;;
56637;SDS011;42507;51.982;20.140;2023-12-28T03:52:49;23.70;;;10.20;;
56637;SDS011;42507;51.982;20.140;2023-12-28T03:55:15;27.50;;;11.60;;
56637;SDS011;42507;51.982;20.140;2023-12-28T03:57:41;24.70;;;10.10;;
56637;SDS011;42507;51.982;20.140;2023-12-28T04:00:08;23.60;;;9.90;;
56637;SDS011;42507;51.982;20.140;2023-12-28T04:02:38;24.40;;;9.80;;
56637;SDS011;42507;51.982;20.140;2023-12-28T04:05:04;25.10;;;10.40;;
56637;SDS011;42507;51.982;20.140;2023-12-28T04:07:30;23.80;;;10.70;;
56637;SDS011;42507;51.982;20.140;2023-12-28T04:09:56;21.90;;;10.00;;
56637;SDS011;42507;51.982;20.140;2023-12-28T04:12:24;23.30;;;9.50;;
56637;SDS011;42507;51.982;20.140;2023-12-28T04:14:50;26.90;;;10.40;;
56637;SDS011;42507;51.982;20.140;2023-12-28T04:17:16;24.10;;;11.00;;
56637;SDS011;42507;51.982;20.140;2023-12-28T04:19:43;20.40;;;9.90;;
56637;SDS011;42507;51.982;20.140;2023-12-28T04:22:09;23.50;;;10.80;;
56637;SDS011;42507;51.982;20.140;2023-12-28T04:24:36;26.10;;;10.20;;
56637;SDS011;42507;51.982;20.140;2023-12-28T04:27:02;20.80;;;10.10;;
56637;SDS011;42507;51.982;20.140;2023-12-28T04:29:28;26.70;;;10.40;;
56637;SDS011;42507;51.982;20.140;2023-12-28T04:31:54;28.90;;;11.30;;
56637;SDS011;42507;51.982;20.140;2023-12-28T04:34:21;23.30;;;9.80;;
56637;SDS011;42507;51.982;20.140;2023-12-28T04:36:47;25.10;;;11.00;;
56637;SDS011;42507;51.982;20.140;2023-12-28T04:39:14;23.70;;;10.60;;
56637;SDS011;42507;51.982;20.140;2023-12-28T04:41:40;26.70;;;10.70;;
56637;SDS011;42507;51.982;20.140;2023-12-28T04:44:06;23.70;;;10.80;;
56637;SDS011;42507;51.982;20.140;2023-12-28T04:46:32;26.90;;;11.00;;
56637;SDS011;42507;51.982;20.140;2023-12-28T04:48:58;28.50;;;11.40;;
56637;SDS011;42507;51.982;20.140;2023-12-28T04:51:25;25.20;;;11.60;;
56637;SDS011;42507;51.982;20.140;2023-12-28T04:53:51;25.40;;;11.10;;
56637;SDS011;42507;51.982;20.140;2023-12-28T04:56:20;23.60;;;10.60;;
56637;SDS011;42507;51.982;20.140;2023-12-28T05:02:49;27.20;;;11.50;;
56637;SDS011;42507;51.982;20.140;2023-12-28T05:05:15;29.60;;;13.00;;
56637;SDS011;42507;51.982;20.140;2023-12-28T05:07:41;30.00;;;12.50;;
56637;SDS011;42507;51.982;20.140;2023-12-28T05:10:07;28.50;;;12.90;;
56637;SDS011;42507;51.982;20.140;2023-12-28T05:12:33;26.50;;;12.10;;
56637;SDS011;42507;51.982;20.140;2023-12-28T05:14:59;29.30;;;12.10;;
56637;SDS011;42507;51.982;20.140;2023-12-28T05:17:25;29.20;;;12.40;;
56637;SDS011;42507;51.982;20.140;2023-12-28T05:19:51;30.20;;;12.70;;
56637;SDS011;42507;51.982;20.140;2023-12-28T05:22:17;27.20;;;11.60;;
56637;SDS011;42507;51.982;20.140;2023-12-28T05:24:43;27.10;;;13.00;;
56637;SDS011;42507;51.982;20.140;2023-12-28T05:27:09;23.70;;;11.80;;
56637;SDS011;42507;51.982;20.140;2023-12-28T05:29:34;30.30;;;14.10;;
56637;SDS011;42507;51.982;20.140;2023-12-28T05:32:01;30.60;;;14.10;;
56637;SDS011;42507;51.982;20.140;2023-12-28T05:34:26;32.10;;;15.40;;
56637;SDS011;42507;51.982;20.140;2023-12-28T05:36:52;33.80;;;17.10;;
56637;SDS011;42507;51.982;20.140;2023-12-28T05:39:18;28.30;;;15.00;;
56637;SDS011;42507;51.982;20.140;2023-12-28T05:41:44;36.20;;;18.70;;
56637;SDS011;42507;51.982;20.140;2023-12-28T05:44:13;31.40;;;15.30;;
56637;SDS011;42507;51.982;20.140;2023-12-28T05:46:40;31.80;;;15.10;;
56637;SDS011;42507;51.982;20.140;2023-12-28T05:49:06;28.60;;;13.90;;
56637;SDS011;42507;51.982;20.140;2023-12-28T05:51:39;28.20;;;13.70;;
56637;SDS011;42507;51.982;20.140;2023-12-28T05:54:08;25.30;;;12.60;;
56637;SDS011;42507;51.982;20.140;2023-12-28T06:00:37;25.40;;;12.60;;
56637;SDS011;42507;51.982;20.140;2023-12-28T06:03:04;27.30;;;14.00;;
56637;SDS011;42507;51.982;20.140;2023-12-28T06:05:31;35.10;;;14.00;;
56637;SDS011;42507;51.982;20.140;2023-12-28T06:07:57;30.90;;;13.40;;
56637;SDS011;42507;51.982;20.140;2023-12-28T06:10:23;36.10;;;14.30;;
56637;SDS011;42507;51.982;20.140;2023-12-28T06:12:50;32.70;;;14.40;;
56637;SDS011;42507;51.982;20.140;2023-12-28T06:15:16;28.80;;;13.40;;
56637;SDS011;42507;51.982;20.140;2023-12-28T06:17:42;31.60;;;14.10;;
56637;SDS011;42507;51.982;20.140;2023-12-28T06:20:08;28.90;;;12.90;;
56637;SDS011;42507;51.982;20.140;2023-12-28T06:22:38;32.10;;;13.60;;
56637;SDS011;42507;51.982;20.140;2023-12-28T06:25:04;29.70;;;14.20;;
56637;SDS011;42507;51.982;20.140;2023-12-28T06:27:31;30.50;;;13.70;;
56637;SDS011;42507;51.982;20.140;2023-12-28T06:29:57;30.80;;;13.60;;
56637;SDS011;42507;51.982;20.140;2023-12-28T06:32:23;27.40;;;13.90;;
56637;SDS011;42507;51.982;20.140;2023-12-28T06:34:49;25.80;;;13.40;;
56637;SDS011;42507;51.982;20.140;2023-12-28T06:37:16;28.30;;;14.00;;
56637;SDS011;42507;51.982;20.140;2023-12-28T06:39:42;31.50;;;14.60;;
56637;SDS011;42507;51.982;20.140;2023-12-28T06:42:08;33.60;;;14.10;;
56637;SDS011;42507;51.982;20.140;2023-12-28T06:44:34;30.20;;;13.90;;
56637;SDS011;42507;51.982;20.140;2023-12-28T06:47:00;32.20;;;13.90;;
56637;SDS011;42507;51.982;20.140;2023-12-28T06:49:26;28.50;;;12.90;;
56637;SDS011;42507;51.982;20.140;2023-12-28T06:51:52;30.90;;;14.10;;
56637;SDS011;42507;51.982;20.140;2023-12-28T06:54:18;29.10;;;14.30;;
56637;SDS011;42507;51.982;20.140;2023-12-28T06:56:44;27.40;;;13.60;;
56637;SDS011;42507;51.982;20.140;2023-12-28T06:59:10;30.40;;;16.10;;
56637;SDS011;42507;51.982;20.140;2023-12-28T07:01:38;28.10;;;14.30;;
56637;SDS011;42507;51.982;20.140;2023-12-28T07:04:05;31.60;;;14.10;;
56637;SDS011;42507;51.982;20.140;2023-12-28T07:06:31;33.20;;;15.60;;
56637;SDS011;42507;51.982;20.140;2023-12-28T07:08:57;28.70;;;15.20;;
56637;SDS011;42507;51.982;20.140;2023-12-28T07:11:23;34.60;;;15.70;;
56637;SDS011;42507;51.982;20.140;2023-12-28T07:13:49;30.00;;;14.40;;
56637;SDS011;42507;51.982;20.140;2023-12-28T07:16:15;31.00;;;14.70;;
56637;SDS011;42507;51.982;20.140;2023-12-28T07:18:43;28.10;;;15.00;;
56637;SDS011;42507;51.982;20.140;2023-12-28T07:21:09;31.00;;;15.10;;
56637;SDS011;42507;51.982;20.140;2023-12-28T07:23:35;40.90;;;17.80;;
56637;SDS011;42507;51.982;20.140;2023-12-28T07:26:02;28.40;;;14.90;;
56637;SDS011;42507;51.982;20.140;2023-12-28T07:28:28;30.90;;;14.50;;
56637;SDS011;42507;51.982;20.140;2023-12-28T07:30:54;29.10;;;13.80;;
56637;SDS011;42507;51.982;20.140;2023-12-28T07:33:20;27.00;;;13.40;;
56637;SDS011;42507;51.982;20.140;2023-12-28T07:35:47;26.90;;;13.40;;
56637;SDS011;42507;51.982;20.140;2023-12-28T07:38:13;27.50;;;13.20;;
56637;SDS011;42507;51.982;20.140;2023-12-28T07:40:39;25.50;;;13.20;;
56637;SDS011;42507;51.982;20.140;2023-12-28T07:43:05;26.60;;;13.80;;
56637;SDS011;42507;51.982;20.140;2023-12-28T07:45:31;26.80;;;12.80;;
56637;SDS011;42507;51.982;20.140;2023-12-28T07:47:59;28.20;;;13.70;;
56637;SDS011;42507;51.982;20.140;2023-12-28T07:50:25;30.80;;;14.40;;
56637;SDS011;42507;51.982;20.140;2023-12-28T07:52:51;24.10;;;12.10;;
56637;SDS011;42507;51.982;20.140;2023-12-28T07:55:17;21.40;;;12.50;;
56637;SDS011;42507;51.982;20.140;2023-12-28T07:57:43;23.30;;;12.10;;
56637;SDS011;42507;51.982;20.140;2023-12-28T08:00:09;22.00;;;12.50;;
56637;SDS011;42507;51.982;20.140;2023-12-28T08:02:36;26.70;;;12.30;;
56637;SDS011;42507;51.982;20.140;2023-12-28T08:05:03;26.50;;;13.30;;
56637;SDS011;42507;51.982;20.140;2023-12-28T08:07:30;27.00;;;12.10;;
56637;SDS011;42507;51.982;20.140;2023-12-28T08:09:56;26.60;;;12.50;;
56637;SDS011;42507;51.982;20.140;2023-12-28T08:12:22;24.60;;;11.90;;
56637;SDS011;42507;51.982;20.140;2023-12-28T08:14:50;21.60;;;10.90;;
56637;SDS011;42507;51.982;20.140;2023-12-28T08:17:17;24.10;;;12.70;;
56637;SDS011;42507;51.982;20.140;2023-12-28T08:19:43;19.70;;;10.90;;
56637;SDS011;42507;51.982;20.140;2023-12-28T08:22:09;28.70;;;12.20;;
56637;SDS011;42507;51.982;20.140;2023-12-28T08:24:35;21.00;;;11.30;;
56637;SDS011;42507;51.982;20.140;2023-12-28T08:27:02;22.70;;;10.70;;
56637;SDS011;42507;51.982;20.140;2023-12-28T08:29:29;25.10;;;12.00;;
56637;SDS011;42507;51.982;20.140;2023-12-28T08:31:55;22.00;;;11.10;;
56637;SDS011;42507;51.982;20.140;2023-12-28T08:34:21;25.90;;;11.60;;
56637;SDS011;42507;51.982;20.140;2023-12-28T08:36:48;22.40;;;11.30;;
56637;SDS011;42507;51.982;20.140;2023-12-28T08:39:14;23.90;;;11.40;;
56637;SDS011;42507;51.982;20.140;2023-12-28T08:41:40;21.50;;;11.20;;
56637;SDS011;42507;51.982;20.140;2023-12-28T08:44:06;19.30;;;10.60;;
56637;SDS011;42507;51.982;20.140;2023-12-28T08:46:32;20.70;;;11.10;;
56637;SDS011;42507;51.982;20.140;2023-12-28T08:48:58;20.80;;;11.80;;
56637;SDS011;42507;51.982;20.140;2023-12-28T08:51:24;25.60;;;12.30;;
56637;SDS011;42507;51.982;20.140;2023-12-28T08:53:50;21.30;;;11.00;;
56637;SDS011;42507;51.982;20.140;2023-12-28T08:56:20;24.90;;;11.50;;
56637;SDS011;42507;51.982;20.140;2023-12-28T08:58:47;25.30;;;11.10;;
56637;SDS011;42507;51.982;20.140;2023-12-28T09:01:20;22.30;;;10.50;;
56637;SDS011;42507;51.982;20.140;2023-12-28T09:03:51;21.70;;;11.20;;
56637;SDS011;42507;51.982;20.140;2023-12-28T09:06:18;23.10;;;11.50;;
56637;SDS011;42507;51.982;20.140;2023-12-28T09:08:47;23.60;;;11.60;;
56637;SDS011;42507;51.982;20.140;2023-12-28T09:11:14;25.20;;;11.60;;
56637;SDS011;42507;51.982;20.140;2023-12-28T09:13:40;22.70;;;11.50;;
56637;SDS011;42507;51.982;20.140;2023-12-28T09:16:07;24.40;;;11.40;;
56637;SDS011;42507;51.982;20.140;2023-12-28T09:18:36;25.30;;;12.10;;
56637;SDS011;42507;51.982;20.140;2023-12-28T09:21:07;24.60;;;11.60;;
56637;SDS011;42507;51.982;20.140;2023-12-28T09:23:34;21.40;;;11.70;;
56637;SDS011;42507;51.982;20.140;2023-12-28T09:26:01;26.70;;;12.00;;
56637;SDS011;42507;51.982;20.140;2023-12-28T09:28:34;21.80;;;10.90;;
56637;SDS011;42507;51.982;20.140;2023-12-28T09:31:01;25.00;;;11.50;;
56637;SDS011;42507;51.982;20.140;2023-12-28T09:33:27;18.80;;;10.50;;
56637;SDS011;42507;51.982;20.140;2023-12-28T09:35:53;27.10;;;12.00;;
56637;SDS011;42507;51.982;20.140;2023-12-28T09:38:19;21.50;;;10.60;;
56637;SDS011;42507;51.982;20.140;2023-12-28T09:40:46;23.00;;;10.70;;
56637;SDS011;42507;51.982;20.140;2023-12-28T09:43:15;23.80;;;11.40;;
56637;SDS011;42507;51.982;20.140;2023-12-28T09:45:47;23.60;;;11.20;;
56637;SDS011;42507;51.982;20.140;2023-12-28T09:48:15;21.90;;;10.90;;
56637;SDS011;42507;51.982;20.140;2023-12-28T09:50:44;23.10;;;10.90;;
56637;SDS011;42507;51.982;20.140;2023-12-28T09:53:11;20.90;;;10.60;;
56637;SDS011;42507;51.982;20.140;2023-12-28T09:55:38;17.50;;;10.20;;
56637;SDS011;42507;51.982;20.140;2023-12-28T09:58:04;23.80;;;11.50;;
56637;SDS011;42507;51.982;20.140;2023-12-28T10:00:31;26.60;;;11.10;;
56637;SDS011;42507;51.982;20.140;2023-12-28T10:02:58;24.40;;;11.10;;
56637;SDS011;42507;51.982;20.140;2023-12-28T10:05:24;25.70;;;11.80;;
56637;SDS011;42507;51.982;20.140;2023-12-28T10:07:50;21.50;;;10.30;;
56637;SDS011;42507;51.982;20.140;2023-12-28T10:10:16;17.00;;;8.10;;
56637;SDS011;42507;51.982;20.140;2023-12-28T10:12:43;16.10;;;7.90;;
56637;SDS011;42507;51.982;20.140;2023-12-28T10:15:09;13.00;;;7.40;;
56637;SDS011;42507;51.982;20.140;2023-12-28T10:17:35;13.10;;;6.80;;
56637;SDS011;42507;51.982;20.140;2023-12-28T10:20:03;14.50;;;8.10;;
56637;SDS011;42507;51.982;20.140;2023-12-28T10:22:36;14.70;;;6.70;;
56637;SDS011;42507;51.982;20.140;2023-12-28T10:25:03;22.30;;;10.10;;
56637;SDS011;42507;51.982;20.140;2023-12-28T10:27:29;20.90;;;10.70;;
56637;SDS011;42507;51.982;20.140;2023-12-28T10:29:56;16.40;;;8.20;;
56637;SDS011;42507;51.982;20.140;2023-12-28T10:32:23;12.70;;;5.60;;
56637;SDS011;42507;51.982;20.140;2023-12-28T10:34:53;12.50;;;5.40;;
56637;SDS011;42507;51.982;20.140;2023-12-28T10:37:20;11.20;;;5.90;;
56637;SDS011;42507;51.982;20.140;2023-12-28T10:39:47;14.10;;;6.90;;
56637;SDS011;42507;51.982;20.140;2023-12-28T10:42:28;12.50;;;5.60;;
56637;SDS011;42507;51.982;20.140;2023-12-28T10:45:01;14.00;;;6.40;;
56637;SDS011;42507;51.982;20.140;2023-12-28T10:47:31;12.60;;;5.90;;
56637;SDS011;42507;51.982;20.140;2023-12-28T10:50:03;11.00;;;5.40;;
56637;SDS011;42507;51.982;20.140;2023-12-28T10:56:36;29.10;;;13.60;;
56637;SDS011;42507;51.982;20.140;2023-12-28T11:01:32;14.40;;;6.30;;
56637;SDS011;42507;51.982;20.140;2023-12-28T11:04:04;11.10;;;5.40;;
56637;SDS011;42507;51.982;20.140;2023-12-28T11:06:34;12.90;;;5.80;;
56637;SDS011;42507;51.982;20.140;2023-12-28T11:09:01;9.80;;;4.90;;
56637;SDS011;42507;51.982;20.140;2023-12-28T11:11:27;8.70;;;4.90;;
56637;SDS011;42507;51.982;20.140;2023-12-28T11:13:54;7.70;;;4.60;;
56637;SDS011;42507;51.982;20.140;2023-12-28T11:16:22;9.30;;;4.40;;
56637;SDS011;42507;51.982;20.140;2023-12-28T11:18:48;9.50;;;4.30;;
56637;SDS011;42507;51.982;20.140;2023-12-28T11:21:15;7.50;;;4.30;;
56637;SDS011;42507;51.982;20.140;2023-12-28T11:23:42;9.40;;;4.70;;
56637;SDS011;42507;51.982;20.140;2023-12-28T11:26:16;8.40;;;4.90;;
56637;SDS011;42507;51.982;20.140;2023-12-28T11:28:46;13.00;;;6.40;;
56637;SDS011;42507;51.982;20.140;2023-12-28T11:31:16;11.10;;;4.70;;
56637;SDS011;42507;51.982;20.140;2023-12-28T11:33:46;8.60;;;5.20;;
56637;SDS011;42507;51.982;20.140;2023-12-28T11:36:26;9.70;;;4.90;;
56637;SDS011;42507;51.982;20.140;2023-12-28T11:39:02;7.70;;;4.90;;
56637;SDS011;42507;51.982;20.140;2023-12-28T11:41:31;9.50;;;4.80;;
56637;SDS011;42507;51.982;20.140;2023-12-28T11:43:57;11.00;;;5.20;;
56637;SDS011;42507;51.982;20.140;2023-12-28T11:46:31;11.40;;;5.70;;
56637;SDS011;42507;51.982;20.140;2023-12-28T11:49:08;12.40;;;6.00;;
56637;SDS011;42507;51.982;20.140;2023-12-28T11:51:36;10.10;;;5.20;;
56637;SDS011;42507;51.982;20.140;2023-12-28T11:54:04;11.30;;;6.00;;
56637;SDS011;42507;51.982;20.140;2023-12-28T11:56:31;16.00;;;6.60;;
56637;SDS011;42507;51.982;20.140;2023-12-28T11:58:58;11.30;;;5.40;;
56637;SDS011;42507;51.982;20.140;2023-12-28T12:01:24;11.10;;;5.60;;
56637;SDS011;42507;51.982;20.140;2023-12-28T12:03:50;8.90;;;5.10;;
56637;SDS011;42507;51.982;20.140;2023-12-28T12:06:16;11.50;;;5.10;;
56637;SDS011;42507;51.982;20.140;2023-12-28T12:08:46;9.70;;;6.00;;
56637;SDS011;42507;51.982;20.140;2023-12-28T12:11:12;11.10;;;5.60;;
56637;SDS011;42507;51.982;20.140;2023-12-28T12:13:38;10.60;;;5.90;;
56637;SDS011;42507;51.982;20.140;2023-12-28T12:16:04;12.20;;;7.30;;
56637;SDS011;42507;51.982;20.140;2023-12-28T12:18:32;9.90;;;5.00;;
56637;SDS011;42507;51.982;20.140;2023-12-28T12:20:58;13.20;;;6.50;;
56637;SDS011;42507;51.982;20.140;2023-12-28T12:23:25;18.50;;;7.80;;
56637;SDS011;42507;51.982;20.140;2023-12-28T12:25:51;13.30;;;6.20;;
56637;SDS011;42507;51.982;20.140;2023-12-28T12:28:17;12.10;;;6.20;;
56637;SDS011;42507;51.982;20.140;2023-12-28T12:30:53;9.70;;;5.20;;
56637;SDS011;42507;51.982;20.140;2023-12-28T12:33:20;11.50;;;5.50;;
56637;SDS011;42507;51.982;20.140;2023-12-28T12:35:46;10.30;;;5.50;;
56637;SDS011;42507;51.982;20.140;2023-12-28T12:38:12;15.10;;;5.60;;
56637;SDS011;42507;51.982;20.140;2023-12-28T12:40:39;10.10;;;5.20;;
56637;SDS011;42507;51.982;20.140;2023-12-28T12:43:05;12.50;;;5.80;;
56637;SDS011;42507;51.982;20.140;2023-12-28T12:45:34;13.30;;;6.40;;
56637;SDS011;42507;51.982;20.140;2023-12-28T12:48:05;11.00;;;5.70;;
56637;SDS011;42507;51.982;20.140;2023-12-28T12:50:31;10.50;;;5.80;;
56637;SDS011;42507;51.982;20.140;2023-12-28T12:53:01;11.80;;;6.00;;
56637;SDS011;42507;51.982;20.140;2023-12-28T12:55:27;10.60;;;5.90;;
56637;SDS011;42507;51.982;20.140;2023-12-28T12:57:53;11.10;;;5.80;;
56637;SDS011;42507;51.982;20.140;2023-12-28T13:00:23;9.70;;;5.20;;
56637;SDS011;42507;51.982;20.140;2023-12-28T13:02:51;13.00;;;6.80;;
56637;SDS011;42507;51.982;20.140;2023-12-28T13:05:19;13.90;;;6.40;;
56637;SDS011;42507;51.982;20.140;2023-12-28T13:07:45;12.60;;;6.70;;
56637;SDS011;42507;51.982;20.140;2023-12-28T13:10:11;17.10;;;8.20;;
56637;SDS011;42507;51.982;20.140;2023-12-28T13:12:37;18.50;;;8.30;;
56637;SDS011;42507;51.982;20.140;2023-12-28T13:15:04;17.00;;;6.90;;
56637;SDS011;42507;51.982;20.140;2023-12-28T13:17:32;14.40;;;7.10;;
56637;SDS011;42507;51.982;20.140;2023-12-28T13:19:58;14.20;;;6.70;;
56637;SDS011;42507;51.982;20.140;2023-12-28T13:22:24;15.20;;;7.10;;
56637;SDS011;42507;51.982;20.140;2023-12-28T13:24:52;14.80;;;6.70;;
56637;SDS011;42507;51.982;20.140;2023-12-28T13:27:18;15.80;;;7.50;;
56637;SDS011;42507;51.982;20.140;2023-12-28T13:29:44;17.80;;;7.60;;
56637;SDS011;42507;51.982;20.140;2023-12-28T13:32:10;26.70;;;10.90;;
56637;SDS011;42507;51.982;20.140;2023-12-28T13:34:36;24.70;;;9.10;;
56637;SDS011;42507;51.982;20.140;2023-12-28T13:37:02;18.60;;;8.00;;
56637;SDS011;42507;51.982;20.140;2023-12-28T13:39:29;21.30;;;7.80;;
56637;SDS011;42507;51.982;20.140;2023-12-28T13:41:55;15.60;;;8.00;;
56637;SDS011;42507;51.982;20.140;2023-12-28T13:44:22;13.40;;;6.70;;
56637;SDS011;42507;51.982;20.140;2023-12-28T13:46:48;11.60;;;6.60;;
56637;SDS011;42507;51.982;20.140;2023-12-28T13:49:15;12.10;;;6.40;;
56637;SDS011;42507;51.982;20.140;2023-12-28T13:51:41;12.20;;;6.40;;
56637;SDS011;42507;51.982;20.140;2023-12-28T13:54:08;14.80;;;7.80;;
56637;SDS011;42507;51.982;20.140;2023-12-28T13:56:34;13.00;;;6.60;;
56637;SDS011;42507;51.982;20.140;2023-12-28T13:59:00;13.60;;;7.10;;
56637;SDS011;42507;51.982;20.140;2023-12-28T14:01:26;21.60;;;9.40;;
56637;SDS011;42507;51.982;20.140;2023-12-28T14:03:53;13.70;;;7.50;;
56637;SDS011;42507;51.982;20.140;2023-12-28T14:06:19;14.10;;;6.10;;
56637;SDS011;42507;51.982;20.140;2023-12-28T14:08:46;13.20;;;6.90;;
56637;SDS011;42507;51.982;20.140;2023-12-28T14:11:12;16.60;;;6.90;;
56637;SDS011;42507;51.982;20.140;2023-12-28T14:13:38;15.40;;;6.70;;
56637;SDS011;42507;51.982;20.140;2023-12-28T14:16:04;14.80;;;7.10;;
56637;SDS011;42507;51.982;20.140;2023-12-28T14:18:30;14.30;;;7.40;;
56637;SDS011;42507;51.982;20.140;2023-12-28T14:20:57;17.80;;;8.00;;
56637;SDS011;42507;51.982;20.140;2023-12-28T14:23:23;17.80;;;8.70;;
56637;SDS011;42507;51.982;20.140;2023-12-28T14:25:50;16.50;;;7.90;;
56637;SDS011;42507;51.982;20.140;2023-12-28T14:28:20;13.90;;;7.40;;
56637;SDS011;42507;51.982;20.140;2023-12-28T14:30:47;19.80;;;8.30;;
56637;SDS011;42507;51.982;20.140;2023-12-28T14:33:13;23.40;;;10.40;;